createdAt,value
2019-04-20T00:01:22.820Z,11.53
2019-04-20T00:03:47.358Z,10.75
2019-04-20T00:06:17.380Z,10.88
2019-04-20T00:08:47.669Z,12.35
2019-04-20T00:11:25.389Z,11.50
2019-04-20T00:13:54.983Z,11.75
2019-04-20T00:16:18.960Z,12.65
2019-04-20T00:18:52.992Z,12.07
2019-04-20T00:21:47.298Z,11.78
2019-04-20T00:24:17.005Z,11.48
2019-04-20T00:27:15.980Z,11.10
2019-04-20T00:29:30.818Z,11.83
2019-04-20T00:31:55.472Z,11.03
2019-04-20T00:34:21.113Z,12.55
2019-04-20T00:36:43.479Z,11.78
2019-04-20T00:39:14.962Z,11.68
2019-04-20T00:41:48.950Z,11.28
2019-04-20T00:44:19.347Z,11.18
2019-04-20T00:46:55.588Z,11.38
2019-04-20T00:49:29.284Z,12.25
2019-04-20T00:52:00.502Z,12.58
2019-04-20T00:54:13.675Z,11.63
2019-04-20T00:56:43.384Z,11.70
2019-04-20T00:59:24.076Z,12.00
2019-04-20T01:01:59.853Z,12.37
2019-04-20T01:04:38.870Z,11.18
2019-04-20T01:07:14.106Z,10.60
2019-04-20T01:09:47.814Z,11.73
2019-04-20T01:12:21.540Z,11.60
2019-04-20T01:14:53.508Z,11.90
2019-04-20T01:17:17.103Z,11.63
2019-04-20T01:19:48.925Z,11.25
2019-04-20T01:22:18.423Z,10.72
2019-04-20T01:24:48.311Z,12.13
2019-04-20T01:27:31.129Z,12.35
2019-04-20T01:29:51.604Z,12.25
2019-04-20T01:32:27.805Z,11.73
2019-04-20T01:34:55.234Z,11.10
2019-04-20T01:37:29.518Z,10.65
2019-04-20T01:39:52.024Z,11.53
2019-04-20T01:42:17.426Z,10.85
2019-04-20T01:44:49.174Z,12.00
2019-04-20T01:47:17.067Z,12.28
2019-04-20T01:49:48.283Z,10.70
2019-04-20T01:52:23.435Z,11.83
2019-04-20T01:55:11.501Z,11.93
2019-04-20T01:57:26.157Z,11.25
2019-04-20T02:00:10.662Z,11.68
2019-04-20T02:02:44.853Z,11.35
2019-04-20T02:05:15.796Z,11.18
2019-04-20T02:07:43.557Z,10.88
2019-04-20T02:10:11.451Z,10.93
2019-04-20T02:12:40.802Z,10.65
2019-04-20T02:15:20.007Z,11.18
2019-04-20T02:17:51.882Z,11.78
2019-04-20T02:20:34.598Z,10.93
2019-04-20T02:22:59.207Z,11.63
2019-04-20T02:25:14.188Z,12.98
2019-04-20T02:27:48.580Z,11.85
2019-04-20T02:30:47.529Z,11.03
2019-04-20T02:33:32.323Z,11.10
2019-04-20T02:36:04.681Z,11.93
2019-04-20T02:38:45.035Z,12.18
2019-04-20T02:40:56.868Z,11.15
2019-04-20T02:43:26.749Z,12.45
2019-04-20T02:45:52.848Z,10.50
2019-04-20T02:48:24.691Z,11.40
2019-04-20T02:50:50.102Z,11.03
2019-04-20T02:53:31.048Z,11.53
2019-04-20T03:00:52.341Z,10.10
2019-04-20T03:03:11.056Z,10.35
2019-04-20T03:05:38.228Z,9.48
2019-04-20T03:08:17.655Z,9.48
2019-04-20T03:10:52.607Z,9.78
2019-04-20T03:13:26.959Z,9.70
2019-04-20T03:15:48.353Z,9.70
2019-04-20T03:18:21.315Z,10.03
2019-04-20T03:20:53.656Z,10.13
2019-04-20T03:26:15.070Z,9.45
2019-04-20T03:28:47.364Z,9.83
2019-04-20T03:31:45.129Z,9.95
2019-04-20T03:34:13.621Z,9.98
2019-04-20T03:36:35.150Z,9.43
2019-04-20T03:38:55.021Z,9.65
2019-04-20T03:41:16.244Z,9.43
2019-04-20T03:43:34.927Z,9.78
2019-04-20T03:46:08.401Z,9.80
2019-04-20T03:48:51.497Z,10.15
2019-04-20T03:51:30.641Z,10.72
2019-04-20T03:54:09.231Z,10.28
2019-04-20T03:57:09.187Z,9.78
2019-04-20T03:59:36.918Z,9.80
2019-04-20T04:02:34.661Z,9.63
2019-04-20T04:05:05.154Z,9.60
2019-04-20T04:07:29.563Z,9.18
2019-04-20T04:10:08.416Z,9.13
2019-04-20T04:12:56.723Z,8.83
2019-04-20T04:15:25.449Z,9.95
2019-04-20T04:17:59.902Z,9.63
2019-04-20T04:20:33.051Z,9.40
2019-04-20T04:23:10.154Z,9.80
2019-04-20T04:25:34.538Z,9.55
2019-04-20T04:28:10.772Z,9.85
2019-04-20T04:30:37.897Z,9.90
2019-04-20T04:35:44.368Z,10.25
2019-04-20T04:38:15.267Z,9.90
2019-04-20T04:40:56.675Z,10.18
2019-04-20T04:43:16.029Z,10.25
2019-04-20T04:45:31.453Z,10.93
2019-04-20T04:47:57.982Z,9.90
2019-04-20T04:50:29.844Z,9.55
2019-04-20T04:53:05.802Z,10.00
2019-04-20T04:55:38.132Z,9.43
2019-04-20T04:57:58.213Z,10.00
2019-04-20T05:00:31.399Z,10.32
2019-04-20T05:03:07.014Z,10.05
2019-04-20T05:05:49.131Z,8.78
2019-04-20T05:08:11.746Z,8.80
2019-04-20T05:10:31.034Z,9.53
2019-04-20T05:13:00.739Z,9.30
2019-04-20T05:15:42.450Z,8.98
2019-04-20T05:18:18.333Z,9.08
2019-04-20T05:20:54.721Z,8.63
2019-04-20T05:23:20.554Z,9.53
2019-04-20T05:26:05.198Z,9.70
2019-04-20T05:28:27.334Z,8.48
2019-04-20T05:30:59.084Z,8.85
2019-04-20T05:33:36.440Z,8.03
2019-04-20T05:36:11.670Z,8.60
2019-04-20T05:38:50.385Z,7.12
2019-04-20T05:41:11.769Z,7.10
2019-04-20T05:43:45.695Z,7.35
2019-04-20T05:46:18.189Z,7.42
2019-04-20T05:48:53.191Z,8.23
2019-04-20T05:51:20.758Z,6.78
2019-04-20T05:53:45.294Z,6.62
2019-04-20T05:56:17.353Z,7.03
2019-04-20T05:58:50.807Z,6.28
2019-04-20T06:01:20.239Z,6.30
2019-04-20T06:03:52.809Z,6.25
2019-04-20T06:06:25.981Z,6.95
2019-04-20T06:08:54.920Z,6.05
2019-04-20T06:11:22.144Z,6.30
2019-04-20T06:13:47.175Z,7.22
2019-04-20T06:16:31.042Z,6.60
2019-04-20T06:19:06.584Z,6.30
2019-04-20T06:21:52.931Z,5.85
2019-04-20T06:24:15.166Z,5.95
2019-04-20T06:26:49.462Z,6.35
2019-04-20T06:29:08.308Z,6.47
2019-04-20T06:31:42.537Z,6.60
2019-04-20T06:34:25.932Z,6.90
2019-04-20T06:39:40.613Z,5.97
2019-04-20T06:44:30.330Z,6.15
2019-04-20T06:47:08.931Z,6.17
2019-04-20T06:49:32.006Z,5.70
2019-04-20T06:52:20.329Z,6.40
2019-04-20T06:54:58.142Z,6.05
2019-04-20T06:57:36.083Z,5.78
2019-04-20T07:00:05.791Z,6.12
2019-04-20T07:02:35.986Z,6.53
2019-04-20T07:05:06.978Z,6.45
2019-04-20T07:07:30.869Z,6.45
2019-04-20T07:12:33.091Z,6.40
2019-04-20T07:14:55.486Z,6.45
2019-04-20T07:20:04.533Z,6.15
2019-04-20T07:22:46.199Z,6.40
2019-04-20T07:25:14.264Z,6.08
2019-04-20T07:27:42.922Z,6.15
2019-04-20T07:30:33.438Z,6.30
2019-04-20T07:32:52.776Z,6.80
2019-04-20T07:35:23.268Z,7.00
2019-04-20T07:38:10.474Z,7.08
2019-04-20T07:40:24.373Z,5.90
2019-04-20T07:42:51.914Z,6.12
2019-04-20T07:45:25.841Z,6.35
2019-04-20T07:47:53.860Z,6.30
2019-04-20T07:50:21.451Z,6.53
2019-04-20T07:52:51.628Z,6.67
2019-04-20T07:55:37.109Z,6.08
2019-04-20T07:57:55.037Z,6.25
2019-04-20T08:00:41.973Z,6.03
2019-04-20T08:03:20.120Z,6.45
2019-04-20T08:05:46.608Z,7.10
2019-04-20T08:08:23.891Z,6.83
2019-04-20T08:10:55.388Z,6.20
2019-04-20T08:13:35.320Z,6.72
2019-04-20T08:16:04.720Z,6.12
2019-04-20T08:18:35.139Z,6.67
2019-04-20T08:21:21.349Z,6.20
2019-04-20T08:23:31.718Z,6.45
2019-04-20T08:25:49.733Z,6.05
2019-04-20T08:28:16.424Z,6.33
2019-04-20T08:31:15.288Z,6.28
2019-04-20T08:34:01.848Z,6.28
2019-04-20T08:36:23.438Z,6.40
2019-04-20T08:39:13.840Z,5.60
2019-04-20T08:41:19.374Z,6.67
2019-04-20T08:43:59.067Z,6.67
2019-04-20T08:46:20.462Z,6.10
2019-04-20T08:48:52.277Z,5.90
2019-04-20T08:51:22.784Z,6.90
2019-04-20T08:53:54.057Z,5.92
2019-04-20T08:56:14.271Z,5.62
2019-04-20T08:58:33.947Z,5.62
2019-04-20T09:01:05.612Z,6.10
2019-04-20T09:03:46.317Z,6.28
2019-04-20T09:06:14.331Z,5.62
2019-04-20T09:08:46.638Z,5.90
2019-04-20T09:11:21.976Z,6.42
2019-04-20T09:13:41.182Z,7.35
2019-04-20T09:16:04.548Z,6.92
2019-04-20T09:18:49.404Z,8.68
2019-04-20T09:21:19.739Z,8.90
2019-04-20T09:23:57.639Z,6.30
2019-04-20T09:26:29.408Z,6.22
2019-04-20T09:28:59.136Z,6.47
2019-04-20T09:31:35.907Z,6.78
2019-04-20T09:34:14.499Z,5.87
2019-04-20T09:39:21.089Z,5.50
2019-04-20T09:42:00.717Z,6.37
2019-04-20T09:44:30.194Z,5.30
2019-04-20T09:46:56.740Z,5.85
2019-04-20T09:49:38.831Z,5.85
2019-04-20T09:52:06.795Z,5.33
2019-04-20T09:54:42.816Z,5.33
2019-04-20T09:57:13.586Z,5.12
2019-04-20T09:59:45.147Z,5.55
2019-04-20T10:02:05.464Z,5.55
2019-04-20T10:04:27.083Z,5.05
2019-04-20T10:07:02.292Z,5.33
2019-04-20T10:09:28.039Z,5.37
2019-04-20T10:11:57.526Z,5.60
2019-04-20T10:14:26.906Z,5.37
2019-04-20T10:16:55.842Z,4.70
2019-04-20T10:19:30.175Z,5.83
2019-04-20T10:21:54.866Z,5.60
2019-04-20T10:24:24.362Z,5.28
2019-04-20T10:26:52.954Z,6.00
2019-04-20T10:29:21.675Z,5.05
2019-04-20T10:31:55.825Z,4.80
2019-04-20T10:34:22.806Z,5.75
2019-04-20T10:36:53.414Z,4.95
2019-04-20T10:39:24.604Z,5.08
2019-04-20T10:41:58.718Z,6.10
2019-04-20T10:44:24.973Z,6.70
2019-04-20T10:46:53.632Z,5.47
2019-04-20T10:49:22.838Z,5.85
2019-04-20T10:51:51.713Z,4.83
2019-04-20T10:54:20.523Z,5.58
2019-04-20T10:56:49.768Z,6.05
2019-04-20T10:59:19.345Z,5.12
2019-04-20T11:01:47.960Z,6.15
2019-04-20T11:04:16.719Z,6.12
2019-04-20T11:06:46.843Z,5.90
2019-04-20T11:09:16.463Z,5.22
2019-04-20T11:11:46.097Z,5.33
2019-04-20T11:14:22.791Z,5.85
2019-04-20T11:16:46.578Z,6.33
2019-04-20T11:19:15.639Z,5.80
2019-04-20T11:21:44.520Z,5.90
2019-04-20T11:24:14.329Z,5.75
2019-04-20T11:26:43.914Z,6.45
2019-04-20T11:29:13.835Z,5.75
2019-04-20T11:31:48.803Z,5.95
2019-04-20T11:34:15.010Z,6.37
2019-04-20T11:36:43.363Z,6.15
2019-04-20T11:39:12.853Z,6.37
2019-04-20T11:41:41.577Z,6.50
2019-04-20T11:44:10.074Z,6.72
2019-04-20T11:46:38.837Z,6.60
2019-04-20T11:49:07.918Z,6.17
2019-04-20T11:51:37.344Z,6.22
2019-04-20T11:54:06.285Z,7.25
2019-04-20T11:56:38.877Z,6.72
2019-04-20T11:59:05.374Z,6.20
2019-04-20T12:01:47.660Z,6.90
2019-04-20T12:04:24.817Z,7.58
2019-04-20T12:06:41.040Z,6.35
2019-04-20T12:09:10.884Z,6.83
2019-04-20T12:11:53.333Z,7.30
2019-04-20T12:14:10.414Z,7.30
2019-04-20T12:16:39.571Z,7.30
2019-04-20T12:19:08.609Z,6.97
2019-04-20T12:21:37.274Z,6.45
2019-04-20T12:24:06.756Z,6.53
2019-04-20T12:26:36.529Z,7.42
2019-04-20T12:29:06.070Z,6.35
2019-04-20T12:31:35.644Z,6.78
2019-04-20T12:34:04.521Z,7.87
2019-04-20T12:36:33.329Z,23.83
2019-04-20T12:39:03.323Z,8.20
2019-04-20T12:41:39.500Z,6.70
2019-04-20T12:44:03.772Z,7.85
2019-04-20T12:46:33.951Z,6.50
2019-04-20T12:49:02.754Z,7.20
2019-04-20T12:51:39.871Z,6.67
2019-04-20T12:54:02.577Z,6.30
2019-04-20T12:56:32.685Z,6.50
2019-04-20T12:59:01.376Z,7.15
2019-04-20T13:01:30.227Z,6.50
2019-04-20T13:04:00.376Z,6.53
2019-04-20T13:06:30.071Z,7.12
2019-04-20T13:09:01.989Z,7.12
2019-04-20T13:11:34.644Z,7.30
2019-04-20T13:14:34.725Z,7.55
2019-04-20T13:17:04.154Z,6.65
2019-04-20T13:19:33.279Z,6.30
2019-04-20T13:22:03.216Z,7.03
2019-04-20T13:24:32.432Z,6.47
2019-04-20T13:27:01.242Z,7.08
2019-04-20T13:29:31.247Z,7.10
2019-04-20T13:32:00.146Z,7.05
2019-04-20T13:34:28.794Z,6.83
2019-04-20T13:36:58.150Z,7.80
2019-04-20T13:39:26.922Z,7.75
2019-04-20T13:42:03.479Z,13.62
2019-04-20T13:44:27.125Z,8.93
2019-04-20T13:46:56.756Z,7.83
2019-04-20T13:49:25.363Z,7.95
2019-04-20T13:51:54.878Z,7.08
2019-04-20T13:54:26.587Z,7.55
2019-04-20T13:56:55.766Z,6.95
2019-04-20T13:59:35.197Z,7.03
2019-04-20T14:02:20.821Z,7.37
2019-04-20T14:04:51.037Z,7.70
2019-04-20T14:07:20.368Z,7.55
2019-04-20T14:09:51.138Z,6.53
2019-04-20T14:12:25.110Z,9.13
2019-04-20T14:14:51.073Z,8.90
2019-04-20T14:17:19.671Z,9.38
2019-04-20T14:19:49.235Z,8.48
2019-04-20T14:22:18.937Z,9.05
2019-04-20T14:24:48.909Z,8.40
2019-04-20T14:27:18.944Z,9.23
2019-04-20T14:29:48.714Z,8.78
2019-04-20T14:32:18.685Z,8.55
2019-04-20T14:34:47.300Z,8.90
2019-04-20T14:37:17.078Z,8.63
2019-04-20T14:39:46.184Z,9.48
2019-04-20T14:42:29.261Z,9.53
2019-04-20T14:44:45.996Z,8.50
2019-04-20T14:47:15.756Z,8.98
2019-04-20T14:49:44.636Z,8.18
2019-04-20T14:52:13.543Z,8.83
2019-04-20T14:54:43.456Z,8.80
2019-04-20T14:57:14.717Z,8.48
2019-04-20T14:59:45.418Z,8.85
2019-04-20T15:02:15.705Z,8.70
2019-04-20T15:04:45.303Z,9.13
2019-04-20T15:07:15.026Z,9.45
2019-04-20T15:09:44.665Z,8.58
2019-04-20T15:12:13.337Z,8.85
2019-04-20T15:14:42.762Z,9.23
2019-04-20T15:17:13.133Z,9.00
2019-04-20T15:19:43.414Z,8.78
2019-04-20T15:22:29.775Z,9.13
2019-04-20T15:24:59.839Z,8.30
2019-04-20T15:27:28.578Z,8.50
2019-04-20T15:29:58.118Z,8.80
2019-04-20T15:32:27.091Z,8.93
2019-04-20T15:34:57.083Z,9.50
2019-04-20T15:37:26.642Z,8.55
2019-04-20T15:39:55.345Z,9.03
2019-04-20T15:42:25.310Z,8.63
2019-04-20T15:44:53.950Z,9.90
2019-04-20T15:47:22.516Z,9.38
2019-04-20T15:49:51.697Z,9.40
2019-04-20T15:52:27.477Z,9.68
2019-04-20T15:54:51.803Z,8.65
2019-04-20T15:57:23.736Z,9.58
2019-04-20T15:59:50.674Z,8.88
2019-04-20T16:02:36.118Z,9.43
2019-04-20T16:05:18.633Z,9.60
2019-04-20T16:07:54.446Z,8.83
2019-04-20T16:10:17.524Z,9.38
2019-04-20T16:12:46.904Z,10.80
2019-04-20T16:15:15.783Z,9.35
2019-04-20T16:17:47.786Z,9.38
2019-04-20T16:20:20.223Z,9.68
2019-04-20T16:22:45.012Z,8.73
2019-04-20T16:25:15.309Z,9.00
2019-04-20T16:27:43.889Z,9.13
2019-04-20T16:30:13.558Z,8.95
2019-04-20T16:32:42.720Z,10.35
2019-04-20T16:35:11.466Z,9.95
2019-04-20T16:37:40.313Z,13.43
2019-04-20T16:40:09.881Z,10.50
2019-04-20T16:42:40.503Z,10.85
2019-04-20T16:45:09.491Z,10.65
2019-04-20T16:47:38.181Z,9.53
2019-04-20T16:50:06.948Z,12.50
2019-04-20T16:52:36.754Z,10.45
2019-04-20T16:55:06.523Z,10.80
2019-04-20T16:57:35.222Z,10.40
2019-04-20T17:00:07.586Z,11.18
2019-04-20T17:02:36.312Z,11.43
2019-04-20T17:05:05.381Z,11.35
2019-04-20T17:07:35.583Z,11.35
2019-04-20T17:10:09.632Z,12.90
2019-04-20T17:12:39.787Z,10.85
2019-04-20T17:15:09.844Z,10.75
2019-04-20T17:17:39.822Z,11.10
2019-04-20T17:20:11.349Z,10.50
2019-04-20T17:22:40.353Z,10.98
2019-04-20T17:25:10.170Z,10.35
2019-04-20T17:27:55.490Z,11.08
2019-04-20T17:33:00.020Z,9.98
2019-04-20T17:35:41.122Z,10.15
2019-04-20T17:38:00.445Z,10.68
2019-04-20T17:40:55.999Z,10.25
2019-04-20T17:43:17.917Z,9.90
2019-04-20T17:45:46.139Z,9.70
2019-04-20T17:48:21.263Z,10.72
2019-04-20T17:51:00.149Z,10.70
2019-04-20T17:53:28.089Z,10.48
2019-04-20T17:55:46.239Z,10.23
2019-04-20T17:58:17.913Z,10.80
2019-04-20T18:00:51.124Z,10.65
2019-04-20T18:03:54.076Z,9.75
2019-04-20T18:06:14.712Z,10.68
2019-04-20T18:08:41.403Z,11.40
2019-04-20T18:11:04.011Z,11.38
2019-04-20T18:13:29.129Z,11.50
2019-04-20T18:16:17.055Z,12.63
2019-04-20T18:18:46.473Z,12.85
2019-04-20T18:21:03.178Z,13.60
2019-04-20T18:23:36.376Z,12.93
2019-04-20T18:26:22.730Z,13.35
2019-04-20T18:28:56.097Z,12.53
2019-04-20T18:31:07.613Z,13.00
2019-04-20T18:33:38.788Z,13.25
2019-04-20T18:36:13.347Z,12.90
2019-04-20T18:38:53.056Z,12.00
2019-04-20T18:41:23.084Z,12.53
2019-04-20T18:43:47.068Z,11.93
2019-04-20T18:46:29.386Z,13.43
2019-04-20T18:49:01.082Z,12.37
2019-04-20T18:51:13.345Z,12.58
2019-04-20T18:53:46.168Z,12.47
2019-04-20T18:56:17.889Z,12.45
2019-04-20T18:58:43.256Z,13.22
2019-04-20T19:01:12.953Z,12.70
2019-04-20T19:03:44.091Z,12.03
2019-04-20T19:06:12.454Z,12.50
2019-04-20T19:08:46.941Z,12.55
2019-04-20T19:11:17.739Z,11.22
2019-04-20T19:13:53.081Z,12.45
2019-04-20T19:16:33.475Z,11.57
2019-04-20T19:19:17.874Z,11.50
2019-04-20T19:21:35.264Z,11.22
2019-04-20T19:24:10.926Z,11.45
2019-04-20T19:26:34.362Z,14.05
2019-04-20T19:29:12.043Z,12.33
2019-04-20T19:31:46.167Z,12.40
2019-04-20T19:34:22.432Z,12.43
2019-04-20T19:36:41.395Z,12.50
2019-04-20T19:39:23.931Z,13.83
2019-04-20T19:41:49.016Z,14.75
2019-04-20T19:44:20.501Z,14.78
2019-04-20T19:47:00.857Z,14.43
2019-04-20T19:49:24.385Z,16.50
2019-04-20T19:52:13.619Z,15.98
2019-04-20T19:54:30.217Z,16.42
2019-04-20T19:56:54.340Z,15.95
2019-04-20T19:59:21.819Z,15.70
2019-04-20T20:01:41.960Z,16.57
2019-04-20T20:04:11.909Z,16.27
2019-04-20T20:06:47.736Z,16.30
2019-04-20T20:09:15.101Z,17.65
2019-04-20T20:11:46.289Z,23.07
2019-04-20T20:14:17.934Z,17.87
2019-04-20T20:17:02.714Z,19.57
2019-04-20T20:19:32.809Z,17.57
2019-04-20T20:21:59.047Z,17.40
2019-04-20T20:24:18.010Z,16.62
2019-04-20T20:26:53.363Z,19.80
2019-04-20T20:29:26.232Z,16.52
2019-04-20T20:32:02.883Z,17.85
2019-04-20T20:34:26.191Z,17.50
2019-04-20T20:36:54.580Z,18.10
2019-04-20T20:39:25.351Z,19.65
2019-04-20T20:42:04.708Z,20.52
2019-04-20T20:44:36.050Z,21.60
2019-04-20T20:46:59.234Z,21.45
2019-04-20T20:49:38.845Z,23.62
2019-04-20T20:52:12.122Z,22.75
2019-04-20T20:54:33.565Z,23.95
2019-04-20T20:56:59.663Z,31.48
2019-04-20T20:59:38.829Z,30.40
2019-04-20T21:02:03.859Z,34.98
2019-04-20T21:04:21.866Z,34.95
2019-04-20T21:06:50.884Z,27.65
2019-04-20T21:09:20.764Z,25.55
2019-04-20T21:11:52.055Z,26.65
2019-04-20T21:14:27.261Z,26.48
2019-04-20T21:17:01.038Z,27.58
2019-04-20T21:19:41.846Z,28.80
2019-04-20T21:21:59.848Z,28.27
2019-04-20T21:24:30.361Z,28.25
2019-04-20T21:27:09.974Z,28.50
2019-04-20T21:29:36.824Z,27.98
2019-04-20T21:32:06.966Z,28.60
2019-04-20T21:34:33.054Z,28.67
2019-04-20T21:37:10.631Z,27.65
2019-04-20T21:39:40.977Z,29.10
2019-04-20T21:42:12.488Z,28.95
2019-04-20T21:44:41.358Z,30.68
2019-04-20T21:47:07.214Z,30.70
2019-04-20T21:49:46.304Z,31.10
2019-04-20T21:52:18.322Z,31.37
2019-04-20T21:54:38.252Z,29.95
2019-04-20T21:57:10.778Z,31.93
2019-04-20T21:59:44.061Z,31.57
2019-04-20T22:02:16.735Z,30.17
2019-04-20T22:04:37.967Z,32.93
2019-04-20T22:07:07.979Z,31.57
2019-04-20T22:09:43.409Z,31.50
2019-04-20T22:12:07.764Z,31.97
2019-04-20T22:14:37.562Z,35.88
2019-04-20T22:17:07.801Z,40.33
2019-04-20T22:19:44.043Z,41.75
2019-04-20T22:22:18.430Z,41.92
2019-04-20T22:24:51.791Z,43.05
2019-04-20T22:27:15.815Z,46.20
2019-04-20T22:29:39.114Z,47.43
2019-04-20T22:32:13.253Z,49.38
2019-04-20T22:34:39.818Z,51.00
2019-04-20T22:37:14.109Z,53.28
2019-04-20T22:39:46.967Z,56.10
2019-04-20T22:42:16.137Z,62.70
2019-04-20T22:44:48.007Z,66.40
2019-04-20T22:47:22.627Z,72.90
2019-04-20T22:50:05.747Z,74.92
2019-04-20T22:52:29.406Z,77.85
2019-04-20T22:55:01.238Z,82.42
2019-04-20T22:57:31.738Z,82.12
2019-04-20T22:59:56.888Z,79.25
2019-04-20T23:02:23.612Z,84.70
2019-04-20T23:04:53.039Z,84.92
2019-04-20T23:07:23.009Z,84.17
2019-04-20T23:09:56.085Z,86.28
2019-04-20T23:12:23.759Z,83.92
2019-04-20T23:14:54.273Z,86.15
2019-04-20T23:17:29.628Z,89.05
2019-04-20T23:19:57.462Z,86.92
2019-04-20T23:22:33.838Z,92.17
2019-04-20T23:24:55.183Z,92.42
2019-04-20T23:27:28.936Z,93.00
2019-04-20T23:29:55.236Z,92.17
2019-04-20T23:32:26.876Z,88.52
2019-04-20T23:34:57.586Z,94.87
2019-04-20T23:37:31.010Z,92.47
2019-04-20T23:39:56.084Z,93.27
2019-04-20T23:42:29.295Z,92.53
2019-04-20T23:45:07.510Z,93.12
2019-04-20T23:47:53.190Z,98.33
2019-04-20T23:50:40.987Z,99.90
2019-04-20T23:53:09.999Z,95.80
2019-04-20T23:55:21.375Z,95.03
2019-04-20T23:57:55.909Z,96.97
